sensor_id;sensor_type;location;lat;lon;timestamp;P1;durP1;ratioP1;P2;durP2;ratioP2
45970;SDS011;31681;48.982;8.394;2023-12-20T00:00:38;6.73;;;4.27;;
45970;SDS011;31681;48.982;8.394;2023-12-20T00:03:04;7.60;;;4.43;;
45970;SDS011;31681;48.982;8.394;2023-12-20T00:05:32;8.53;;;4.57;;
45970;SDS011;31681;48.982;8.394;2023-12-20T00:07:58;5.63;;;4.30;;
45970;SDS011;31681;48.982;8.394;2023-12-20T00:10:23;7.83;;;4.90;;
45970;SDS011;31681;48.982;8.394;2023-12-20T00:12:49;6.60;;;4.60;;
45970;SDS011;31681;48.982;8.394;2023-12-20T00:15:14;6.13;;;3.90;;
45970;SDS011;31681;48.982;8.394;2023-12-20T00:17:39;8.67;;;5.00;;
45970;SDS011;31681;48.982;8.394;2023-12-20T00:20:05;8.73;;;4.30;;
45970;SDS011;31681;48.982;8.394;2023-12-20T00:22:31;8.90;;;4.70;;
45970;SDS011;31681;48.982;8.394;2023-12-20T00:24:56;6.80;;;4.43;;
45970;SDS011;31681;48.982;8.394;2023-12-20T00:27:21;6.10;;;4.63;;
45970;SDS011;31681;48.982;8.394;2023-12-20T00:29:47;7.50;;;4.30;;
45970;SDS011;31681;48.982;8.394;2023-12-20T00:32:15;9.67;;;5.53;;
45970;SDS011;31681;48.982;8.394;2023-12-20T00:34:40;8.23;;;5.00;;
45970;SDS011;31681;48.982;8.394;2023-12-20T00:37:05;7.33;;;4.57;;
45970;SDS011;31681;48.982;8.394;2023-12-20T00:39:31;7.30;;;4.70;;
45970;SDS011;31681;48.982;8.394;2023-12-20T00:41:56;8.03;;;4.93;;
45970;SDS011;31681;48.982;8.394;2023-12-20T00:44:21;7.10;;;5.07;;
45970;SDS011;31681;48.982;8.394;2023-12-20T00:46:46;6.83;;;4.63;;
45970;SDS011;31681;48.982;8.394;2023-12-20T00:49:12;7.27;;;4.70;;
45970;SDS011;31681;48.982;8.394;2023-12-20T00:51:37;6.37;;;4.63;;
45970;SDS011;31681;48.982;8.394;2023-12-20T00:54:02;6.60;;;5.03;;
45970;SDS011;31681;48.982;8.394;2023-12-20T00:56:27;8.80;;;4.57;;
45970;SDS011;31681;48.982;8.394;2023-12-20T00:58:53;8.07;;;4.70;;
45970;SDS011;31681;48.982;8.394;2023-12-20T01:01:18;8.00;;;4.80;;
45970;SDS011;31681;48.982;8.394;2023-12-20T01:03:43;6.93;;;4.07;;
45970;SDS011;31681;48.982;8.394;2023-12-20T01:06:08;6.33;;;4.23;;
45970;SDS011;31681;48.982;8.394;2023-12-20T01:08:34;6.77;;;4.27;;
45970;SDS011;31681;48.982;8.394;2023-12-20T01:11:00;7.53;;;4.73;;
45970;SDS011;31681;48.982;8.394;2023-12-20T01:13:25;9.03;;;4.90;;
45970;SDS011;31681;48.982;8.394;2023-12-20T01:15:50;8.80;;;4.70;;
45970;SDS011;31681;48.982;8.394;2023-12-20T01:18:16;6.80;;;4.77;;
45970;SDS011;31681;48.982;8.394;2023-12-20T01:20:41;6.10;;;4.00;;
45970;SDS011;31681;48.982;8.394;2023-12-20T01:23:06;7.23;;;4.47;;
45970;SDS011;31681;48.982;8.394;2023-12-20T01:25:31;7.77;;;4.70;;
45970;SDS011;31681;48.982;8.394;2023-12-20T01:27:57;6.73;;;4.50;;
45970;SDS011;31681;48.982;8.394;2023-12-20T01:30:22;6.83;;;4.50;;
45970;SDS011;31681;48.982;8.394;2023-12-20T01:32:47;6.53;;;4.53;;
45970;SDS011;31681;48.982;8.394;2023-12-20T01:35:13;7.40;;;5.00;;
45970;SDS011;31681;48.982;8.394;2023-12-20T01:37:38;6.33;;;4.43;;
45970;SDS011;31681;48.982;8.394;2023-12-20T01:40:04;7.97;;;4.70;;
45970;SDS011;31681;48.982;8.394;2023-12-20T01:42:29;8.23;;;5.17;;
45970;SDS011;31681;48.982;8.394;2023-12-20T01:44:54;6.23;;;4.53;;
45970;SDS011;31681;48.982;8.394;2023-12-20T01:47:19;8.03;;;5.03;;
45970;SDS011;31681;48.982;8.394;2023-12-20T01:49:45;9.67;;;5.27;;
45970;SDS011;31681;48.982;8.394;2023-12-20T01:52:10;8.43;;;5.10;;
45970;SDS011;31681;48.982;8.394;2023-12-20T01:54:36;6.77;;;4.83;;
45970;SDS011;31681;48.982;8.394;2023-12-20T01:57:01;5.93;;;4.67;;
45970;SDS011;31681;48.982;8.394;2023-12-20T01:59:27;7.83;;;4.27;;
45970;SDS011;31681;48.982;8.394;2023-12-20T02:01:54;6.70;;;4.47;;
45970;SDS011;31681;48.982;8.394;2023-12-20T02:04:19;7.77;;;4.57;;
45970;SDS011;31681;48.982;8.394;2023-12-20T02:06:44;4.77;;;3.87;;
45970;SDS011;31681;48.982;8.394;2023-12-20T02:09:11;5.00;;;3.40;;
45970;SDS011;31681;48.982;8.394;2023-12-20T02:11:36;5.70;;;3.77;;
45970;SDS011;31681;48.982;8.394;2023-12-20T02:14:02;4.40;;;3.53;;
45970;SDS011;31681;48.982;8.394;2023-12-20T02:16:27;6.03;;;4.00;;
45970;SDS011;31681;48.982;8.394;2023-12-20T02:18:53;6.17;;;3.50;;
45970;SDS011;31681;48.982;8.394;2023-12-20T02:21:18;6.23;;;4.27;;
45970;SDS011;31681;48.982;8.394;2023-12-20T02:23:45;4.57;;;3.83;;
45970;SDS011;31681;48.982;8.394;2023-12-20T02:26:10;6.53;;;3.97;;
45970;SDS011;31681;48.982;8.394;2023-12-20T02:28:35;6.07;;;3.87;;
45970;SDS011;31681;48.982;8.394;2023-12-20T02:31:01;5.70;;;3.97;;
45970;SDS011;31681;48.982;8.394;2023-12-20T02:33:26;6.57;;;3.93;;
45970;SDS011;31681;48.982;8.394;2023-12-20T02:35:51;5.70;;;4.60;;
45970;SDS011;31681;48.982;8.394;2023-12-20T02:38:17;5.73;;;3.90;;
45970;SDS011;31681;48.982;8.394;2023-12-20T02:40:43;7.20;;;4.47;;
45970;SDS011;31681;48.982;8.394;2023-12-20T02:43:08;7.37;;;4.20;;
45970;SDS011;31681;48.982;8.394;2023-12-20T02:45:33;6.80;;;4.07;;
45970;SDS011;31681;48.982;8.394;2023-12-20T02:47:59;6.73;;;4.57;;
45970;SDS011;31681;48.982;8.394;2023-12-20T02:50:24;6.07;;;4.17;;
45970;SDS011;31681;48.982;8.394;2023-12-20T02:52:49;7.40;;;4.30;;
45970;SDS011;31681;48.982;8.394;2023-12-20T02:55:14;4.87;;;3.90;;
45970;SDS011;31681;48.982;8.394;2023-12-20T02:57:40;7.67;;;4.47;;
45970;SDS011;31681;48.982;8.394;2023-12-20T03:00:09;7.20;;;4.63;;
45970;SDS011;31681;48.982;8.394;2023-12-20T03:02:34;7.77;;;5.00;;
45970;SDS011;31681;48.982;8.394;2023-12-20T03:05:00;7.10;;;4.83;;
45970;SDS011;31681;48.982;8.394;2023-12-20T03:07:25;6.03;;;4.60;;
45970;SDS011;31681;48.982;8.394;2023-12-20T03:09:50;7.17;;;4.93;;
45970;SDS011;31681;48.982;8.394;2023-12-20T03:12:15;7.07;;;4.50;;
45970;SDS011;31681;48.982;8.394;2023-12-20T03:14:41;7.87;;;4.47;;
45970;SDS011;31681;48.982;8.394;2023-12-20T03:17:06;7.17;;;4.73;;
45970;SDS011;31681;48.982;8.394;2023-12-20T03:19:31;5.90;;;4.40;;
45970;SDS011;31681;48.982;8.394;2023-12-20T03:21:57;7.37;;;4.73;;
45970;SDS011;31681;48.982;8.394;2023-12-20T03:24:22;6.90;;;4.87;;
45970;SDS011;31681;48.982;8.394;2023-12-20T03:26:47;7.47;;;4.93;;
45970;SDS011;31681;48.982;8.394;2023-12-20T03:29:12;4.43;;;3.80;;
45970;SDS011;31681;48.982;8.394;2023-12-20T03:31:38;7.40;;;5.00;;
45970;SDS011;31681;48.982;8.394;2023-12-20T03:34:03;6.23;;;4.63;;
45970;SDS011;31681;48.982;8.394;2023-12-20T03:36:28;6.63;;;4.23;;
45970;SDS011;31681;48.982;8.394;2023-12-20T03:38:54;7.30;;;4.80;;
45970;SDS011;31681;48.982;8.394;2023-12-20T03:41:19;5.87;;;4.20;;
45970;SDS011;31681;48.982;8.394;2023-12-20T03:43:44;5.90;;;4.40;;
45970;SDS011;31681;48.982;8.394;2023-12-20T03:46:10;7.73;;;4.90;;
45970;SDS011;31681;48.982;8.394;2023-12-20T03:48:35;7.63;;;4.50;;
45970;SDS011;31681;48.982;8.394;2023-12-20T03:51:00;6.77;;;4.00;;
45970;SDS011;31681;48.982;8.394;2023-12-20T03:53:25;6.23;;;4.13;;
45970;SDS011;31681;48.982;8.394;2023-12-20T03:55:51;4.33;;;3.57;;
45970;SDS011;31681;48.982;8.394;2023-12-20T03:58:16;6.00;;;4.03;;
45970;SDS011;31681;48.982;8.394;2023-12-20T04:00:41;4.67;;;3.60;;
45970;SDS011;31681;48.982;8.394;2023-12-20T04:03:07;6.60;;;3.57;;
45970;SDS011;31681;48.982;8.394;2023-12-20T04:05:32;5.90;;;4.00;;
45970;SDS011;31681;48.982;8.394;2023-12-20T04:07:57;6.53;;;3.93;;
45970;SDS011;31681;48.982;8.394;2023-12-20T04:10:23;5.17;;;3.67;;
45970;SDS011;31681;48.982;8.394;2023-12-20T04:12:48;8.73;;;4.00;;
45970;SDS011;31681;48.982;8.394;2023-12-20T04:15:13;4.20;;;3.47;;
45970;SDS011;31681;48.982;8.394;2023-12-20T04:17:39;6.97;;;3.70;;
45970;SDS011;31681;48.982;8.394;2023-12-20T04:20:04;6.00;;;4.13;;
45970;SDS011;31681;48.982;8.394;2023-12-20T04:22:30;5.23;;;4.17;;
45970;SDS011;31681;48.982;8.394;2023-12-20T04:24:55;4.97;;;3.80;;
45970;SDS011;31681;48.982;8.394;2023-12-20T04:27:20;7.70;;;4.13;;
45970;SDS011;31681;48.982;8.394;2023-12-20T04:29:46;6.00;;;3.70;;
45970;SDS011;31681;48.982;8.394;2023-12-20T04:32:11;5.50;;;3.87;;
45970;SDS011;31681;48.982;8.394;2023-12-20T04:34:36;5.13;;;3.23;;
45970;SDS011;31681;48.982;8.394;2023-12-20T04:37:02;6.53;;;4.33;;
45970;SDS011;31681;48.982;8.394;2023-12-20T04:39:27;5.57;;;3.67;;
45970;SDS011;31681;48.982;8.394;2023-12-20T04:41:53;6.23;;;3.80;;
45970;SDS011;31681;48.982;8.394;2023-12-20T04:44:18;5.27;;;4.03;;
45970;SDS011;31681;48.982;8.394;2023-12-20T04:46:43;6.13;;;4.27;;
45970;SDS011;31681;48.982;8.394;2023-12-20T04:49:09;5.47;;;3.87;;
45970;SDS011;31681;48.982;8.394;2023-12-20T04:51:34;8.40;;;4.00;;
45970;SDS011;31681;48.982;8.394;2023-12-20T04:54:00;6.00;;;4.30;;
45970;SDS011;31681;48.982;8.394;2023-12-20T04:56:25;5.03;;;3.67;;
45970;SDS011;31681;48.982;8.394;2023-12-20T04:58:50;5.83;;;3.77;;
45970;SDS011;31681;48.982;8.394;2023-12-20T05:01:16;5.80;;;4.20;;
45970;SDS011;31681;48.982;8.394;2023-12-20T05:03:42;6.17;;;3.90;;
45970;SDS011;31681;48.982;8.394;2023-12-20T05:06:07;6.57;;;4.20;;
45970;SDS011;31681;48.982;8.394;2023-12-20T05:08:33;5.10;;;3.80;;
45970;SDS011;31681;48.982;8.394;2023-12-20T05:10:58;5.63;;;3.97;;
45970;SDS011;31681;48.982;8.394;2023-12-20T05:13:23;6.03;;;4.00;;
45970;SDS011;31681;48.982;8.394;2023-12-20T05:15:49;5.50;;;4.13;;
45970;SDS011;31681;48.982;8.394;2023-12-20T05:18:14;4.80;;;3.60;;
45970;SDS011;31681;48.982;8.394;2023-12-20T05:20:40;5.40;;;3.80;;
45970;SDS011;31681;48.982;8.394;2023-12-20T05:23:05;9.30;;;4.00;;
45970;SDS011;31681;48.982;8.394;2023-12-20T05:25:31;6.77;;;4.07;;
45970;SDS011;31681;48.982;8.394;2023-12-20T05:27:56;7.37;;;4.50;;
45970;SDS011;31681;48.982;8.394;2023-12-20T05:30:22;6.37;;;4.10;;
45970;SDS011;31681;48.982;8.394;2023-12-20T05:32:47;5.27;;;4.23;;
45970;SDS011;31681;48.982;8.394;2023-12-20T05:35:12;6.60;;;4.80;;
45970;SDS011;31681;48.982;8.394;2023-12-20T05:37:38;7.40;;;4.60;;
45970;SDS011;31681;48.982;8.394;2023-12-20T05:40:03;6.73;;;3.37;;
45970;SDS011;31681;48.982;8.394;2023-12-20T05:42:29;6.73;;;4.23;;
45970;SDS011;31681;48.982;8.394;2023-12-20T05:44:54;5.93;;;3.97;;
45970;SDS011;31681;48.982;8.394;2023-12-20T05:47:20;6.43;;;4.03;;
45970;SDS011;31681;48.982;8.394;2023-12-20T05:49:45;5.00;;;4.20;;
45970;SDS011;31681;48.982;8.394;2023-12-20T05:52:11;4.60;;;3.90;;
45970;SDS011;31681;48.982;8.394;2023-12-20T05:54:36;5.10;;;4.13;;
45970;SDS011;31681;48.982;8.394;2023-12-20T05:57:01;6.27;;;3.40;;
45970;SDS011;31681;48.982;8.394;2023-12-20T05:59:27;6.80;;;3.57;;
45970;SDS011;31681;48.982;8.394;2023-12-20T06:01:52;5.23;;;3.77;;
45970;SDS011;31681;48.982;8.394;2023-12-20T06:04:18;5.10;;;3.60;;
45970;SDS011;31681;48.982;8.394;2023-12-20T06:06:43;4.53;;;3.33;;
45970;SDS011;31681;48.982;8.394;2023-12-20T06:09:09;5.60;;;3.93;;
45970;SDS011;31681;48.982;8.394;2023-12-20T06:11:34;6.17;;;4.00;;
45970;SDS011;31681;48.982;8.394;2023-12-20T06:14:00;4.73;;;3.93;;
45970;SDS011;31681;48.982;8.394;2023-12-20T06:16:25;5.33;;;4.17;;
45970;SDS011;31681;48.982;8.394;2023-12-20T06:18:53;6.03;;;4.80;;
45970;SDS011;31681;48.982;8.394;2023-12-20T06:21:19;5.83;;;4.10;;
45970;SDS011;31681;48.982;8.394;2023-12-20T06:23:44;5.83;;;4.10;;
45970;SDS011;31681;48.982;8.394;2023-12-20T06:26:09;5.20;;;3.67;;
45970;SDS011;31681;48.982;8.394;2023-12-20T06:28:35;5.47;;;3.73;;
45970;SDS011;31681;48.982;8.394;2023-12-20T06:31:00;3.80;;;3.37;;
45970;SDS011;31681;48.982;8.394;2023-12-20T06:33:26;4.73;;;3.57;;
45970;SDS011;31681;48.982;8.394;2023-12-20T06:35:51;5.17;;;3.77;;
45970;SDS011;31681;48.982;8.394;2023-12-20T06:38:17;5.13;;;3.57;;
45970;SDS011;31681;48.982;8.394;2023-12-20T06:40:42;6.17;;;4.00;;
45970;SDS011;31681;48.982;8.394;2023-12-20T06:43:08;5.20;;;3.80;;
45970;SDS011;31681;48.982;8.394;2023-12-20T06:45:33;4.87;;;3.30;;
45970;SDS011;31681;48.982;8.394;2023-12-20T06:47:59;6.20;;;3.43;;
45970;SDS011;31681;48.982;8.394;2023-12-20T06:50:24;3.83;;;3.27;;
45970;SDS011;31681;48.982;8.394;2023-12-20T06:52:50;4.10;;;2.93;;
45970;SDS011;31681;48.982;8.394;2023-12-20T06:55:16;4.77;;;3.10;;
45970;SDS011;31681;48.982;8.394;2023-12-20T06:57:42;4.43;;;3.20;;
45970;SDS011;31681;48.982;8.394;2023-12-20T07:00:07;3.57;;;3.20;;
45970;SDS011;31681;48.982;8.394;2023-12-20T07:02:34;4.77;;;3.20;;
45970;SDS011;31681;48.982;8.394;2023-12-20T07:04:59;9.33;;;3.33;;
45970;SDS011;31681;48.982;8.394;2023-12-20T07:07:25;4.10;;;3.10;;
45970;SDS011;31681;48.982;8.394;2023-12-20T07:09:50;4.17;;;2.73;;
45970;SDS011;31681;48.982;8.394;2023-12-20T07:12:15;5.80;;;2.90;;
45970;SDS011;31681;48.982;8.394;2023-12-20T07:14:41;3.27;;;2.57;;
45970;SDS011;31681;48.982;8.394;2023-12-20T07:17:06;4.60;;;2.60;;
45970;SDS011;31681;48.982;8.394;2023-12-20T07:19:37;4.70;;;2.83;;
45970;SDS011;31681;48.982;8.394;2023-12-20T07:22:02;4.57;;;2.67;;
45970;SDS011;31681;48.982;8.394;2023-12-20T07:24:28;3.53;;;2.90;;
45970;SDS011;31681;48.982;8.394;2023-12-20T07:26:53;5.43;;;3.10;;
45970;SDS011;31681;48.982;8.394;2023-12-20T07:29:18;5.13;;;3.00;;
45970;SDS011;31681;48.982;8.394;2023-12-20T07:31:44;4.03;;;2.93;;
45970;SDS011;31681;48.982;8.394;2023-12-20T07:34:09;3.40;;;2.60;;
45970;SDS011;31681;48.982;8.394;2023-12-20T07:36:35;3.13;;;2.83;;
45970;SDS011;31681;48.982;8.394;2023-12-20T07:39:00;3.93;;;2.93;;
45970;SDS011;31681;48.982;8.394;2023-12-20T07:41:25;3.37;;;2.80;;
45970;SDS011;31681;48.982;8.394;2023-12-20T07:43:51;5.17;;;3.07;;
45970;SDS011;31681;48.982;8.394;2023-12-20T07:46:16;4.73;;;3.30;;
45970;SDS011;31681;48.982;8.394;2023-12-20T07:48:41;4.10;;;3.40;;
45970;SDS011;31681;48.982;8.394;2023-12-20T07:51:07;3.83;;;2.90;;
45970;SDS011;31681;48.982;8.394;2023-12-20T07:53:34;4.47;;;3.30;;
45970;SDS011;31681;48.982;8.394;2023-12-20T07:56:00;3.87;;;3.07;;
45970;SDS011;31681;48.982;8.394;2023-12-20T07:58:26;7.80;;;3.57;;
45970;SDS011;31681;48.982;8.394;2023-12-20T08:00:51;5.43;;;3.83;;
45970;SDS011;31681;48.982;8.394;2023-12-20T08:03:16;4.20;;;3.07;;
45970;SDS011;31681;48.982;8.394;2023-12-20T08:05:42;4.00;;;3.13;;
45970;SDS011;31681;48.982;8.394;2023-12-20T08:08:07;4.53;;;3.60;;
45970;SDS011;31681;48.982;8.394;2023-12-20T08:10:32;4.27;;;3.43;;
45970;SDS011;31681;48.982;8.394;2023-12-20T08:12:58;6.00;;;4.00;;
45970;SDS011;31681;48.982;8.394;2023-12-20T08:15:23;5.10;;;3.20;;
45970;SDS011;31681;48.982;8.394;2023-12-20T08:17:48;4.17;;;3.30;;
45970;SDS011;31681;48.982;8.394;2023-12-20T08:20:16;5.03;;;3.40;;
45970;SDS011;31681;48.982;8.394;2023-12-20T08:22:41;2.73;;;2.50;;
45970;SDS011;31681;48.982;8.394;2023-12-20T08:25:07;5.73;;;2.90;;
45970;SDS011;31681;48.982;8.394;2023-12-20T08:27:33;3.30;;;2.90;;
45970;SDS011;31681;48.982;8.394;2023-12-20T08:29:59;2.70;;;2.43;;
45970;SDS011;31681;48.982;8.394;2023-12-20T08:32:28;3.17;;;2.20;;
45970;SDS011;31681;48.982;8.394;2023-12-20T08:34:53;4.10;;;2.13;;
45970;SDS011;31681;48.982;8.394;2023-12-20T08:37:19;2.70;;;2.20;;
45970;SDS011;31681;48.982;8.394;2023-12-20T08:39:44;2.50;;;1.87;;
45970;SDS011;31681;48.982;8.394;2023-12-20T08:42:10;3.10;;;2.13;;
45970;SDS011;31681;48.982;8.394;2023-12-20T08:44:35;3.67;;;1.80;;
45970;SDS011;31681;48.982;8.394;2023-12-20T08:47:00;7.20;;;1.90;;
45970;SDS011;31681;48.982;8.394;2023-12-20T08:49:26;3.27;;;1.37;;
45970;SDS011;31681;48.982;8.394;2023-12-20T08:51:53;4.60;;;1.83;;
45970;SDS011;31681;48.982;8.394;2023-12-20T08:54:18;2.80;;;1.80;;
45970;SDS011;31681;48.982;8.394;2023-12-20T08:56:44;2.10;;;1.60;;
45970;SDS011;31681;48.982;8.394;2023-12-20T08:59:11;3.03;;;1.60;;
45970;SDS011;31681;48.982;8.394;2023-12-20T09:01:37;3.70;;;1.50;;
45970;SDS011;31681;48.982;8.394;2023-12-20T09:04:02;3.20;;;1.60;;
45970;SDS011;31681;48.982;8.394;2023-12-20T09:06:28;8.80;;;2.10;;
45970;SDS011;31681;48.982;8.394;2023-12-20T09:08:53;2.90;;;1.70;;
45970;SDS011;31681;48.982;8.394;2023-12-20T09:11:18;3.40;;;1.80;;
45970;SDS011;31681;48.982;8.394;2023-12-20T09:13:44;7.33;;;2.20;;
45970;SDS011;31681;48.982;8.394;2023-12-20T09:16:09;5.17;;;1.90;;
45970;SDS011;31681;48.982;8.394;2023-12-20T09:18:35;2.70;;;1.80;;
45970;SDS011;31681;48.982;8.394;2023-12-20T09:21:00;6.07;;;1.97;;
45970;SDS011;31681;48.982;8.394;2023-12-20T09:23:25;5.13;;;1.90;;
45970;SDS011;31681;48.982;8.394;2023-12-20T09:25:51;3.30;;;1.80;;
45970;SDS011;31681;48.982;8.394;2023-12-20T09:28:16;6.20;;;2.30;;
45970;SDS011;31681;48.982;8.394;2023-12-20T09:30:41;5.07;;;1.90;;
45970;SDS011;31681;48.982;8.394;2023-12-20T09:33:07;3.67;;;2.20;;
45970;SDS011;31681;48.982;8.394;2023-12-20T09:35:33;2.43;;;2.07;;
45970;SDS011;31681;48.982;8.394;2023-12-20T09:37:58;5.90;;;2.40;;
45970;SDS011;31681;48.982;8.394;2023-12-20T09:40:23;9.83;;;2.73;;
45970;SDS011;31681;48.982;8.394;2023-12-20T09:42:55;5.47;;;2.43;;
45970;SDS011;31681;48.982;8.394;2023-12-20T09:45:21;7.97;;;2.27;;
45970;SDS011;31681;48.982;8.394;2023-12-20T09:47:47;5.17;;;2.47;;
45970;SDS011;31681;48.982;8.394;2023-12-20T09:50:13;5.30;;;2.43;;
45970;SDS011;31681;48.982;8.394;2023-12-20T09:52:38;6.07;;;2.37;;
45970;SDS011;31681;48.982;8.394;2023-12-20T09:55:04;5.43;;;2.47;;
45970;SDS011;31681;48.982;8.394;2023-12-20T09:57:31;4.10;;;2.47;;
45970;SDS011;31681;48.982;8.394;2023-12-20T09:59:56;6.10;;;2.50;;
45970;SDS011;31681;48.982;8.394;2023-12-20T10:02:22;8.33;;;2.97;;
45970;SDS011;31681;48.982;8.394;2023-12-20T10:04:49;5.03;;;2.27;;
45970;SDS011;31681;48.982;8.394;2023-12-20T10:07:14;4.63;;;2.23;;
45970;SDS011;31681;48.982;8.394;2023-12-20T10:09:40;3.67;;;2.10;;
45970;SDS011;31681;48.982;8.394;2023-12-20T10:12:05;9.70;;;2.30;;
45970;SDS011;31681;48.982;8.394;2023-12-20T10:14:32;5.83;;;2.43;;
45970;SDS011;31681;48.982;8.394;2023-12-20T10:17:04;7.33;;;2.30;;
45970;SDS011;31681;48.982;8.394;2023-12-20T10:19:29;6.67;;;2.50;;
45970;SDS011;31681;48.982;8.394;2023-12-20T10:21:55;7.03;;;2.50;;
45970;SDS011;31681;48.982;8.394;2023-12-20T10:24:20;5.37;;;2.33;;
45970;SDS011;31681;48.982;8.394;2023-12-20T10:26:46;3.87;;;2.30;;
45970;SDS011;31681;48.982;8.394;2023-12-20T10:29:11;7.60;;;2.47;;
45970;SDS011;31681;48.982;8.394;2023-12-20T10:31:36;5.97;;;2.40;;
45970;SDS011;31681;48.982;8.394;2023-12-20T10:34:04;4.37;;;2.27;;
45970;SDS011;31681;48.982;8.394;2023-12-20T10:36:31;5.13;;;2.60;;
45970;SDS011;31681;48.982;8.394;2023-12-20T10:38:57;6.73;;;2.60;;
45970;SDS011;31681;48.982;8.394;2023-12-20T10:41:30;5.60;;;2.80;;
45970;SDS011;31681;48.982;8.394;2023-12-20T10:44:00;6.47;;;2.43;;
45970;SDS011;31681;48.982;8.394;2023-12-20T10:46:26;5.87;;;2.50;;
45970;SDS011;31681;48.982;8.394;2023-12-20T10:48:53;8.30;;;2.80;;
45970;SDS011;31681;48.982;8.394;2023-12-20T10:51:18;11.13;;;3.30;;
45970;SDS011;31681;48.982;8.394;2023-12-20T10:53:45;5.43;;;2.73;;
45970;SDS011;31681;48.982;8.394;2023-12-20T10:56:12;8.03;;;2.67;;
45970;SDS011;31681;48.982;8.394;2023-12-20T10:58:41;6.37;;;2.83;;
45970;SDS011;31681;48.982;8.394;2023-12-20T11:01:07;7.77;;;2.33;;
45970;SDS011;31681;48.982;8.394;2023-12-20T11:03:34;6.63;;;3.00;;
45970;SDS011;31681;48.982;8.394;2023-12-20T11:06:02;4.20;;;2.60;;
45970;SDS011;31681;48.982;8.394;2023-12-20T11:08:32;6.27;;;2.40;;
45970;SDS011;31681;48.982;8.394;2023-12-20T11:11:02;6.43;;;2.40;;
45970;SDS011;31681;48.982;8.394;2023-12-20T11:13:48;8.73;;;2.60;;
45970;SDS011;31681;48.982;8.394;2023-12-20T11:16:18;4.80;;;2.50;;
45970;SDS011;31681;48.982;8.394;2023-12-20T11:18:44;4.33;;;2.10;;
45970;SDS011;31681;48.982;8.394;2023-12-20T11:21:10;4.20;;;2.43;;
45970;SDS011;31681;48.982;8.394;2023-12-20T11:23:35;5.60;;;2.40;;
45970;SDS011;31681;48.982;8.394;2023-12-20T11:26:02;4.77;;;2.23;;
45970;SDS011;31681;48.982;8.394;2023-12-20T11:28:27;6.13;;;2.83;;
45970;SDS011;31681;48.982;8.394;2023-12-20T11:30:55;4.63;;;2.20;;
45970;SDS011;31681;48.982;8.394;2023-12-20T11:33:21;6.53;;;2.70;;
45970;SDS011;31681;48.982;8.394;2023-12-20T11:35:47;10.73;;;2.60;;
45970;SDS011;31681;48.982;8.394;2023-12-20T11:38:13;7.73;;;2.70;;
45970;SDS011;31681;48.982;8.394;2023-12-20T11:40:39;6.30;;;2.60;;
45970;SDS011;31681;48.982;8.394;2023-12-20T11:43:06;8.00;;;2.90;;
45970;SDS011;31681;48.982;8.394;2023-12-20T11:45:31;6.40;;;2.53;;
45970;SDS011;31681;48.982;8.394;2023-12-20T11:47:57;4.70;;;2.47;;
45970;SDS011;31681;48.982;8.394;2023-12-20T11:50:24;5.20;;;2.43;;
45970;SDS011;31681;48.982;8.394;2023-12-20T11:52:49;6.73;;;2.50;;
45970;SDS011;31681;48.982;8.394;2023-12-20T11:55:15;4.93;;;2.30;;
45970;SDS011;31681;48.982;8.394;2023-12-20T11:57:41;6.87;;;2.50;;
45970;SDS011;31681;48.982;8.394;2023-12-20T12:00:07;7.83;;;2.57;;
45970;SDS011;31681;48.982;8.394;2023-12-20T12:02:38;5.93;;;2.20;;
45970;SDS011;31681;48.982;8.394;2023-12-20T12:05:03;6.33;;;2.93;;
45970;SDS011;31681;48.982;8.394;2023-12-20T12:07:31;6.40;;;2.30;;
45970;SDS011;31681;48.982;8.394;2023-12-20T12:09:57;4.07;;;2.00;;
45970;SDS011;31681;48.982;8.394;2023-12-20T12:12:23;6.47;;;2.20;;
45970;SDS011;31681;48.982;8.394;2023-12-20T12:14:50;7.53;;;2.40;;
45970;SDS011;31681;48.982;8.394;2023-12-20T12:17:16;6.47;;;2.47;;
45970;SDS011;31681;48.982;8.394;2023-12-20T12:19:41;5.60;;;2.20;;
45970;SDS011;31681;48.982;8.394;2023-12-20T12:22:08;7.03;;;2.33;;
45970;SDS011;31681;48.982;8.394;2023-12-20T12:24:36;5.40;;;1.87;;
45970;SDS011;31681;48.982;8.394;2023-12-20T12:27:02;5.53;;;2.67;;
45970;SDS011;31681;48.982;8.394;2023-12-20T12:29:27;6.10;;;2.43;;
45970;SDS011;31681;48.982;8.394;2023-12-20T12:31:53;9.73;;;3.07;;
45970;SDS011;31681;48.982;8.394;2023-12-20T12:34:19;9.00;;;2.27;;
45970;SDS011;31681;48.982;8.394;2023-12-20T12:36:45;12.47;;;2.10;;
45970;SDS011;31681;48.982;8.394;2023-12-20T12:39:17;4.73;;;2.50;;
45970;SDS011;31681;48.982;8.394;2023-12-20T12:41:43;3.67;;;2.00;;
45970;SDS011;31681;48.982;8.394;2023-12-20T12:44:08;8.07;;;1.90;;
45970;SDS011;31681;48.982;8.394;2023-12-20T12:46:34;4.20;;;1.73;;
45970;SDS011;31681;48.982;8.394;2023-12-20T12:48:59;6.73;;;2.63;;
45970;SDS011;31681;48.982;8.394;2023-12-20T12:51:25;6.97;;;2.30;;
45970;SDS011;31681;48.982;8.394;2023-12-20T12:53:50;9.97;;;2.43;;
45970;SDS011;31681;48.982;8.394;2023-12-20T12:56:15;6.13;;;1.93;;
45970;SDS011;31681;48.982;8.394;2023-12-20T12:58:41;5.63;;;2.17;;
45970;SDS011;31681;48.982;8.394;2023-12-20T13:01:06;7.23;;;2.00;;
45970;SDS011;31681;48.982;8.394;2023-12-20T13:03:31;7.47;;;2.70;;
45970;SDS011;31681;48.982;8.394;2023-12-20T13:05:57;3.77;;;2.23;;
45970;SDS011;31681;48.982;8.394;2023-12-20T13:08:22;6.43;;;1.80;;
45970;SDS011;31681;48.982;8.394;2023-12-20T13:10:47;6.27;;;2.30;;
45970;SDS011;31681;48.982;8.394;2023-12-20T13:13:13;7.20;;;1.90;;
45970;SDS011;31681;48.982;8.394;2023-12-20T13:15:38;7.57;;;2.30;;
45970;SDS011;31681;48.982;8.394;2023-12-20T13:18:04;5.67;;;2.30;;
45970;SDS011;31681;48.982;8.394;2023-12-20T13:20:31;11.97;;;3.27;;
45970;SDS011;31681;48.982;8.394;2023-12-20T13:22:56;10.03;;;2.07;;
45970;SDS011;31681;48.982;8.394;2023-12-20T13:25:22;5.97;;;1.83;;
45970;SDS011;31681;48.982;8.394;2023-12-20T13:27:47;8.57;;;2.30;;
45970;SDS011;31681;48.982;8.394;2023-12-20T13:30:12;7.20;;;2.30;;
45970;SDS011;31681;48.982;8.394;2023-12-20T13:32:38;8.83;;;2.00;;
45970;SDS011;31681;48.982;8.394;2023-12-20T13:35:04;5.03;;;1.70;;
45970;SDS011;31681;48.982;8.394;2023-12-20T13:37:29;8.77;;;2.53;;
45970;SDS011;31681;48.982;8.394;2023-12-20T13:39:55;8.27;;;2.17;;
45970;SDS011;31681;48.982;8.394;2023-12-20T13:42:20;11.13;;;2.10;;
45970;SDS011;31681;48.982;8.394;2023-12-20T13:44:45;4.60;;;1.90;;
45970;SDS011;31681;48.982;8.394;2023-12-20T13:47:12;9.33;;;2.83;;
45970;SDS011;31681;48.982;8.394;2023-12-20T13:49:37;5.40;;;2.03;;
45970;SDS011;31681;48.982;8.394;2023-12-20T13:52:02;6.57;;;2.73;;
45970;SDS011;31681;48.982;8.394;2023-12-20T13:54:29;6.23;;;2.40;;
45970;SDS011;31681;48.982;8.394;2023-12-20T13:56:54;5.97;;;2.10;;
45970;SDS011;31681;48.982;8.394;2023-12-20T13:59:19;4.70;;;1.77;;
45970;SDS011;31681;48.982;8.394;2023-12-20T14:01:45;9.80;;;1.90;;
45970;SDS011;31681;48.982;8.394;2023-12-20T14:04:10;3.97;;;1.70;;
45970;SDS011;31681;48.982;8.394;2023-12-20T14:06:36;6.80;;;2.07;;
45970;SDS011;31681;48.982;8.394;2023-12-20T14:09:02;9.37;;;1.97;;
45970;SDS011;31681;48.982;8.394;2023-12-20T14:11:28;6.10;;;2.33;;
45970;SDS011;31681;48.982;8.394;2023-12-20T14:13:53;4.23;;;1.90;;
45970;SDS011;31681;48.982;8.394;2023-12-20T14:16:23;6.23;;;2.17;;
45970;SDS011;31681;48.982;8.394;2023-12-20T14:18:49;3.87;;;1.70;;
45970;SDS011;31681;48.982;8.394;2023-12-20T14:21:14;5.67;;;1.90;;
45970;SDS011;31681;48.982;8.394;2023-12-20T14:23:39;6.73;;;1.70;;
45970;SDS011;31681;48.982;8.394;2023-12-20T14:26:05;6.47;;;1.93;;
45970;SDS011;31681;48.982;8.394;2023-12-20T14:28:30;5.87;;;1.80;;
45970;SDS011;31681;48.982;8.394;2023-12-20T14:30:55;8.00;;;1.60;;
45970;SDS011;31681;48.982;8.394;2023-12-20T14:33:21;6.77;;;2.33;;
45970;SDS011;31681;48.982;8.394;2023-12-20T14:35:47;10.50;;;1.90;;
45970;SDS011;31681;48.982;8.394;2023-12-20T14:38:12;6.93;;;1.57;;